createdAt,value
2023-04-24T00:03:00.863Z,4.18
2023-04-24T00:08:03.176Z,4.18
2023-04-24T00:13:06.428Z,4.13
2023-04-24T00:18:08.841Z,4.11
2023-04-24T00:23:11.565Z,4.05
2023-04-24T00:28:14.148Z,4.03
2023-04-24T00:33:17.065Z,3.91
2023-04-24T00:38:19.902Z,3.89
2023-04-24T00:43:23.234Z,3.92
2023-04-24T00:48:30.843Z,3.83
2023-04-24T00:53:34.141Z,3.93
2023-04-24T00:58:37.193Z,3.68
2023-04-24T01:03:40.346Z,3.77
2023-04-24T01:08:43.298Z,3.79
2023-04-24T01:13:46.808Z,3.86
2023-04-24T01:18:49.747Z,3.81
2023-04-24T01:23:54.601Z,3.70
2023-04-24T01:28:57.721Z,3.66
2023-04-24T01:34:00.684Z,3.41
2023-04-24T01:39:04.708Z,3.47
2023-04-24T01:44:06.969Z,3.47
2023-04-24T01:49:11.729Z,3.44
2023-04-24T01:54:14.676Z,3.36
2023-04-24T01:59:19.297Z,3.25
2023-04-24T02:04:21.997Z,3.23
2023-04-24T02:09:24.828Z,3.37
2023-04-24T02:14:27.641Z,3.53
2023-04-24T02:19:30.438Z,3.62
2023-04-24T02:24:32.996Z,3.42
2023-04-24T02:29:36.134Z,3.54
2023-04-24T02:34:38.652Z,3.63
2023-04-24T02:39:41.432Z,3.75
2023-04-24T02:44:44.406Z,3.80
2023-04-24T02:49:47.147Z,3.95
2023-04-24T02:54:49.764Z,3.75
2023-04-24T02:59:52.559Z,3.76
2023-04-24T03:04:56.229Z,3.77
2023-04-24T03:09:59.614Z,3.97
2023-04-24T03:15:03.569Z,4.18
2023-04-24T03:20:12.259Z,4.05
2023-04-24T03:25:15.378Z,4.28
2023-04-24T03:30:18.116Z,4.32
2023-04-24T03:35:30.173Z,4.49
2023-04-24T03:40:37.212Z,4.78
2023-04-24T03:45:47.806Z,4.87
2023-04-24T03:50:51.712Z,5.14
2023-04-24T03:55:54.908Z,5.33
2023-04-24T04:00:59.474Z,5.45
2023-04-24T04:06:20.728Z,5.66
2023-04-24T04:11:23.662Z,5.89
2023-04-24T04:16:26.959Z,6.25
2023-04-24T04:21:35.674Z,6.56
2023-04-24T04:26:48.448Z,6.85
2023-04-24T04:32:11.485Z,6.93
2023-04-24T04:37:15.610Z,7.22
2023-04-24T04:42:28.416Z,7.05
2023-04-24T04:47:33.314Z,6.64
2023-04-24T04:52:37.584Z,7.20
2023-04-24T04:58:02.964Z,7.65
2023-04-24T05:03:20.058Z,7.92
2023-04-24T05:08:27.970Z,7.97
2023-04-24T05:13:39.762Z,8.71
2023-04-24T05:18:49.425Z,9.66
2023-04-24T05:23:55.831Z,10.90
2023-04-24T05:29:20.408Z,12.18
2023-04-24T05:34:23.729Z,12.90
2023-04-24T05:39:31.045Z,13.90
2023-04-24T05:44:35.772Z,14.76
2023-04-24T05:49:38.076Z,15.53
2023-04-24T05:54:41.596Z,17.83
2023-04-24T05:59:48.209Z,21.86
2023-04-24T06:04:51.925Z,25.24
2023-04-24T06:09:54.348Z,26.01
2023-04-24T06:14:58.682Z,22.96
2023-04-24T06:20:25.670Z,20.77
2023-04-24T06:25:28.475Z,22.44
2023-04-24T06:30:30.711Z,27.25
2023-04-24T06:35:33.601Z,29.14
2023-04-24T06:40:36.233Z,30.20
2023-04-24T06:45:41.033Z,30.92
2023-04-24T06:50:44.034Z,30.73
2023-04-24T06:55:47.270Z,30.58
2023-04-24T07:00:49.394Z,29.46
2023-04-24T07:05:52.481Z,29.19
2023-04-24T07:10:55.062Z,29.57
2023-04-24T07:15:57.890Z,26.54
2023-04-24T07:21:00.798Z,24.76
2023-04-24T07:26:03.730Z,23.27
2023-04-24T07:31:06.472Z,21.70
2023-04-24T07:36:09.295Z,20.82
2023-04-24T07:41:12.109Z,21.48
2023-04-24T07:46:14.483Z,21.55
2023-04-24T07:51:17.544Z,21.11
2023-04-24T07:56:20.450Z,21.02
2023-04-24T08:01:23.129Z,21.40
2023-04-24T08:06:25.625Z,22.01
2023-04-24T08:11:28.765Z,23.49
2023-04-24T08:16:31.743Z,23.76
2023-04-24T08:21:35.070Z,23.37
2023-04-24T08:26:37.307Z,23.53
2023-04-24T08:31:39.420Z,22.97
2023-04-24T08:36:47.005Z,21.71
2023-04-24T08:41:50.646Z,21.55
2023-04-24T08:46:55.139Z,20.98
2023-04-24T08:51:58.297Z,20.45
2023-04-24T08:57:02.572Z,19.93
2023-04-24T09:02:06.132Z,19.57
2023-04-24T09:07:12.104Z,19.37
2023-04-24T09:12:14.531Z,20.17
2023-04-24T09:17:17.592Z,20.81
2023-04-24T09:22:19.939Z,21.27
2023-04-24T09:27:25.683Z,21.97
2023-04-24T09:32:28.920Z,22.62
2023-04-24T09:37:31.881Z,23.28
2023-04-24T09:42:34.500Z,24.07
2023-04-24T09:47:38.649Z,25.09
2023-04-24T09:52:57.534Z,25.60
2023-04-24T09:58:01.947Z,25.87
2023-04-24T10:03:07.129Z,23.23
2023-04-24T10:08:13.319Z,22.04
2023-04-24T10:13:17.002Z,21.95
2023-04-24T10:18:20.514Z,22.22
2023-04-24T10:23:24.423Z,21.79
2023-04-24T10:28:28.611Z,21.06
2023-04-24T10:33:32.695Z,20.59
2023-04-24T10:38:37.177Z,19.73
2023-04-24T10:43:41.562Z,19.97
2023-04-24T10:48:45.539Z,18.84
2023-04-24T10:53:48.074Z,19.02
2023-04-24T10:58:53.488Z,18.39
2023-04-24T11:03:58.668Z,18.27
2023-04-24T11:09:06.634Z,18.18
2023-04-24T11:14:09.676Z,18.68
2023-04-24T11:19:22.657Z,19.13
2023-04-24T11:24:39.153Z,19.27
2023-04-24T11:29:58.738Z,19.50
2023-04-24T11:35:10.433Z,20.03
2023-04-24T11:40:16.861Z,19.30
2023-04-24T11:45:25.510Z,19.08
2023-04-24T11:50:29.890Z,18.92
2023-04-24T11:55:32.580Z,18.74
2023-04-24T12:00:35.663Z,18.28
2023-04-24T12:05:40.130Z,17.70
2023-04-24T12:10:42.936Z,17.87
2023-04-24T12:15:45.655Z,17.64
2023-04-24T12:20:48.249Z,18.03
2023-04-24T12:25:53.097Z,18.25
2023-04-24T12:30:55.741Z,18.81
2023-04-24T12:35:59.724Z,19.11
2023-04-24T12:41:07.726Z,19.69
2023-04-24T12:46:10.044Z,20.31
2023-04-24T12:51:12.753Z,19.70
2023-04-24T12:56:15.386Z,19.94
2023-04-24T13:01:18.007Z,19.66
2023-04-24T13:06:20.678Z,19.38
2023-04-24T13:11:24.213Z,19.19
2023-04-24T13:16:27.066Z,19.43
2023-04-24T13:21:31.587Z,20.13
2023-04-24T13:26:34.583Z,20.23
2023-04-24T13:31:37.431Z,20.11
2023-04-24T13:36:40.007Z,20.26
2023-04-24T13:41:42.697Z,20.17
2023-04-24T13:46:47.347Z,20.16
2023-04-24T13:51:49.864Z,19.93
2023-04-24T13:56:53.179Z,20.12
2023-04-24T14:01:56.712Z,19.85
2023-04-24T14:06:59.422Z,19.46
2023-04-24T14:12:03.199Z,19.39
2023-04-24T14:17:06.447Z,19.69
2023-04-24T14:22:08.764Z,19.12
2023-04-24T14:27:11.329Z,19.39
2023-04-24T14:32:16.222Z,18.90
2023-04-24T14:37:18.972Z,18.77
2023-04-24T14:42:21.490Z,18.45
2023-04-24T14:47:24.313Z,18.18
2023-04-24T14:52:26.971Z,18.38
2023-04-24T14:57:29.689Z,18.12
2023-04-24T15:02:32.009Z,17.85
2023-04-24T15:07:34.815Z,17.68
2023-04-24T15:12:37.457Z,17.85
2023-04-24T15:17:42.036Z,17.83
2023-04-24T15:22:44.680Z,17.80
2023-04-24T15:27:47.747Z,17.70
2023-04-24T15:32:50.451Z,17.77
2023-04-24T15:37:53.150Z,17.60
2023-04-24T15:42:55.924Z,17.39
2023-04-24T15:47:58.714Z,17.47
2023-04-24T15:53:01.393Z,17.50
2023-04-24T15:58:03.747Z,17.25
2023-04-24T16:03:09.309Z,17.30
2023-04-24T16:08:14.526Z,17.18
2023-04-24T16:13:18.965Z,17.06
2023-04-24T16:18:22.276Z,16.59
2023-04-24T16:23:24.932Z,16.49
2023-04-24T16:28:28.332Z,16.21
2023-04-24T16:33:32.244Z,15.76
2023-04-24T16:38:35.989Z,15.27
2023-04-24T16:43:39.240Z,14.88
2023-04-24T16:48:42.827Z,14.51
2023-04-24T16:53:45.490Z,14.14
2023-04-24T16:58:51.652Z,13.87
2023-04-24T17:03:55.094Z,13.92
2023-04-24T17:08:58.545Z,13.50
2023-04-24T17:14:01.745Z,13.31
2023-04-24T17:19:05.844Z,13.13
2023-04-24T17:24:08.784Z,13.24
2023-04-24T17:29:14.992Z,12.82
2023-04-24T17:34:19.655Z,12.54
2023-04-24T17:39:23.193Z,12.23
2023-04-24T17:44:26.084Z,12.01
2023-04-24T17:49:29.079Z,12.04
2023-04-24T17:54:31.712Z,12.30
2023-04-24T17:59:34.412Z,11.80
2023-04-24T18:04:39.397Z,11.97
2023-04-24T18:09:42.321Z,12.14
2023-04-24T18:14:44.967Z,12.21
2023-04-24T18:19:47.809Z,12.32
2023-04-24T18:24:50.818Z,12.15
2023-04-24T18:29:53.561Z,12.26
2023-04-24T18:34:56.874Z,12.16
2023-04-24T18:39:59.764Z,12.27
2023-04-24T18:45:02.648Z,12.13
2023-04-24T18:50:06.770Z,12.38
2023-04-24T18:55:10.145Z,12.15
2023-04-24T19:00:13.320Z,12.13
2023-04-24T19:05:16.529Z,12.15
2023-04-24T19:10:19.182Z,12.09
2023-04-24T19:15:21.825Z,12.05
2023-04-24T19:20:24.572Z,12.32
2023-04-24T19:25:26.813Z,12.24
2023-04-24T19:30:29.454Z,11.88
2023-04-24T19:35:32.038Z,11.53
2023-04-24T19:40:34.876Z,11.71
2023-04-24T19:45:37.403Z,11.62
2023-04-24T19:50:40.521Z,11.67
2023-04-24T19:55:43.597Z,11.66
2023-04-24T20:00:46.899Z,11.69
2023-04-24T20:05:49.512Z,11.42
2023-04-24T20:10:52.609Z,11.39
2023-04-24T20:15:56.083Z,11.63
2023-04-24T20:21:00.125Z,11.47
2023-04-24T20:26:05.143Z,11.87
2023-04-24T20:31:08.001Z,11.82
2023-04-24T20:36:14.342Z,11.91
2023-04-24T20:41:17.454Z,11.99
2023-04-24T20:46:19.910Z,12.13
2023-04-24T20:51:25.392Z,12.30
2023-04-24T20:56:28.012Z,12.02
2023-04-24T21:01:31.234Z,11.78
2023-04-24T21:06:33.492Z,12.05
2023-04-24T21:11:36.458Z,11.66
2023-04-24T21:16:39.584Z,11.63
2023-04-24T21:21:42.229Z,11.69
2023-04-24T21:26:44.964Z,11.45
2023-04-24T21:31:50.725Z,11.61
2023-04-24T21:36:56.659Z,11.74
2023-04-24T21:41:59.290Z,11.66
2023-04-24T21:47:01.853Z,11.52
2023-04-24T21:52:04.502Z,11.83
2023-04-24T21:57:07.536Z,11.86
2023-04-24T22:02:09.928Z,11.49
2023-04-24T22:07:12.594Z,11.36
2023-04-24T22:12:15.386Z,11.06
2023-04-24T22:17:18.065Z,11.19
2023-04-24T22:22:20.720Z,10.71
2023-04-24T22:27:23.367Z,10.65
2023-04-24T22:32:26.364Z,10.64
2023-04-24T22:37:29.146Z,10.72
2023-04-24T22:42:31.604Z,10.59
2023-04-24T22:47:34.407Z,10.76
2023-04-24T22:52:37.493Z,10.82
2023-04-24T22:57:41.445Z,10.73
2023-04-24T23:02:43.960Z,10.73
2023-04-24T23:07:46.949Z,10.59
2023-04-24T23:12:50.197Z,10.50
2023-04-24T23:17:52.562Z,10.64
2023-04-24T23:22:55.371Z,10.66
2023-04-24T23:27:57.994Z,10.74
2023-04-24T23:33:00.987Z,10.82
2023-04-24T23:38:03.636Z,10.85
2023-04-24T23:43:07.912Z,10.90
2023-04-24T23:48:11.537Z,10.69
2023-04-24T23:53:13.706Z,10.59
2023-04-24T23:58:16.273Z,10.67
